Time;durP1;ratioP1;P1;durP2;ratioP2;P2;SDS_P1;SDS_P2;PMS_P1;PMS_P2;Temp;Humidity;BMP_temperature;BMP_pressure;BME280_temperature;BME280_humidity;BME280_pressure;Samples;Min_cycle;Max_cycle;Signal;HPM_P1;HPM_P2
2021/01/18 00:00:11;;;;;;;103.65;83.68;;;;;;;1.16;86.88;101061.91;5084399;28;20060;-78
2021/01/18 00:03:16;;;;;;;101.53;81.60;;;;;;;1.16;87.39;101060.09;5085430;28;20471;-78
2021/01/18 00:06:20;;;;;;;102.70;84.28;;;;;;;1.16;87.66;101067.19;5075392;28;20044;-78
2021/01/18 00:09:27;;;;;;;96.55;81.00;;;;;;;1.18;87.89;101068.84;5082533;28;20032;-78
2021/01/18 00:12:31;;;;;;;98.18;78.00;;;;;;;1.22;87.57;101064.28;5074491;28;20047;-78
2021/01/18 00:15:34;;;;;;;93.97;76.88;;;;;;;1.15;87.07;101061.03;5092694;28;20071;-78
2021/01/18 00:18:39;;;;;;;95.63;78.55;;;;;;;1.09;87.30;101071.81;5074481;28;20048;-78
2021/01/18 00:21:45;;;;;;;92.43;78.72;;;;;;;1.02;87.68;101065.06;5088329;28;20051;-78
2021/01/18 00:24:49;;;;;;;92.50;77.72;;;;;;;1.01;87.84;101070.41;5094494;28;20399;-78
2021/01/18 00:27:53;;;;;;;90.32;76.45;;;;;;;0.98;87.95;101089.88;5093347;28;20043;-78
2021/01/18 00:30:58;;;;;;;;;;;;;;;0.94;88.07;101090.91;5074812;28;20055;-77
2021/01/18 00:34:02;;;;;;;90.78;74.00;;;;;;;0.97;88.01;101089.91;5073320;28;19916;-78
2021/01/18 00:37:06;;;;;;;92.63;75.15;;;;;;;0.99;87.67;101091.59;5077169;28;20047;-78
2021/01/18 00:40:14;;;;;;;92.75;77.32;;;;;;;0.98;87.70;101091.66;5094332;28;20051;-78
2021/01/18 00:43:19;;;;;;;93.22;75.50;;;;;;;1.00;87.59;101084.53;5094392;28;20058;-79
2021/01/18 00:46:24;;;;;;;92.18;76.43;;;;;;;0.87;87.58;101093.81;5094275;28;20084;-77
2021/01/18 00:49:28;;;;;;;89.03;76.25;;;;;;;0.82;87.55;101095.75;5094243;28;20051;-79
2021/01/18 00:52:32;;;;;;;94.47;75.25;;;;;;;0.83;87.72;101105.41;5092897;28;20047;-78
2021/01/18 00:55:36;;;;;;;87.28;74.38;;;;;;;0.77;87.70;101105.63;5081010;28;20507;-78
2021/01/18 00:59:00;;;;;;;88.53;72.22;;;;;;;0.77;87.73;101109.13;5081089;28;20047;-78
2021/01/18 01:02:21;;;;;;;92.97;74.22;;;;;;;0.71;87.55;101095.31;5082311;28;20035;-78
2021/01/18 01:05:28;;;;;;;93.13;74.88;;;;;;;0.67;87.60;101099.81;5072999;28;20039;-78
2021/01/18 01:08:32;;;;;;;92.93;75.65;;;;;;;0.65;87.64;101107.81;5072694;28;20068;-77
2021/01/18 01:11:43;;;;;;;92.05;72.25;;;;;;;0.67;87.45;101118.31;5073945;28;20063;-77
2021/01/18 01:14:49;;;;;;;90.18;73.07;;;;;;;0.53;87.61;101126.72;5073707;28;20056;-77
2021/01/18 01:17:53;;;;;;;95.10;78.57;;;;;;;0.43;88.17;101129.72;5073670;28;20056;-77
2021/01/18 01:20:59;;;;;;;94.80;78.82;;;;;;;0.43;88.17;101130.59;5073256;28;20052;-75
2021/01/18 01:24:04;;;;;;;97.60;82.07;;;;;;;0.37;88.91;101130.78;5094021;28;20059;-78
2021/01/18 01:27:08;;;;;;;97.82;82.57;;;;;;;0.38;89.22;101136.94;5097968;28;20055;-79
2021/01/18 01:30:15;;;;;;;88.82;78.85;;;;;;;0.39;89.56;101139.53;5082178;28;20055;-78
2021/01/18 01:33:19;;;;;;;94.85;80.65;;;;;;;0.41;89.13;101140.34;5077834;28;20060;-78
2021/01/18 01:36:24;;;;;;;96.00;85.32;;;;;;;0.36;89.12;101144.91;5082921;28;20051;-78
2021/01/18 01:39:28;;;;;;;93.95;80.82;;;;;;;0.26;89.26;101135.56;5096680;28;20513;-78
2021/01/18 01:42:33;;;;;;;95.25;82.68;;;;;;;0.27;89.50;101134.66;5091397;28;20059;-77
2021/01/18 01:45:37;;;;;;;92.72;80.03;;;;;;;0.27;89.31;101144.38;5095075;28;20640;-77
2021/01/18 01:48:42;;;;;;;89.13;75.75;;;;;;;0.44;88.72;101158.75;5097889;28;20051;-78
2021/01/18 01:51:48;;;;;;;90.90;78.40;;;;;;;0.21;88.55;101140.16;5097552;28;20055;-77
2021/01/18 01:54:57;;;;;;;94.15;81.90;;;;;;;0.20;88.75;101142.84;5076887;28;20043;-78
2021/01/18 01:58:05;;;;;;;95.72;82.57;;;;;;;0.22;88.97;101147.16;5077192;28;20052;-77
2021/01/18 02:01:09;;;;;;;93.45;79.95;;;;;;;0.21;89.00;101155.97;5077181;28;20052;-79
2021/01/18 02:04:13;;;;;;;89.22;78.60;;;;;;;0.20;89.01;101164.81;5084165;28;20055;-78
2021/01/18 02:07:23;;;;;;;89.47;79.45;;;;;;;0.18;89.24;101157.84;5097229;28;20051;-77
2021/01/18 02:10:27;;;;;;;99.55;82.50;;;;;;;0.10;88.83;101157.25;5097136;28;20482;-78
2021/01/18 02:13:45;;;;;;;97.10;83.35;;;;;;;0.12;89.15;101165.97;5097306;28;20055;-79
2021/01/18 02:17:06;;;;;;;97.07;83.85;;;;;;;0.06;89.28;101155.59;5094635;28;20047;-79
2021/01/18 02:20:31;;;;;;;97.32;85.53;;;;;;;0.11;89.67;101159.84;5086246;28;20043;-78
2021/01/18 02:24:12;;;;;;;103.03;86.90;;;;;;;0.10;90.08;101155.44;5076145;28;20067;-78
2021/01/18 02:27:28;;;;;;;99.40;87.35;;;;;;;0.10;90.03;101157.25;5089844;28;20036;-78
2021/01/18 02:30:57;;;;;;;106.65;89.68;;;;;;;0.05;89.89;101160.00;5095664;28;20051;-79
2021/01/18 02:34:30;;;;;;;95.30;82.78;;;;;;;-0.02;89.91;101151.44;5087884;28;20045;-79
2021/01/18 02:37:56;;;;;;;95.43;82.78;;;;;;;-0.03;89.70;101144.47;5075747;28;20045;-78
2021/01/18 02:41:00;;;;;;;97.20;82.10;;;;;;;-0.01;89.65;101161.09;5076309;28;20048;-78
2021/01/18 02:44:07;;;;;;;97.80;83.75;;;;;;;-0.06;89.76;101136.63;5079225;28;20044;-78
2021/01/18 02:47:14;;;;;;;95.97;82.60;;;;;;;-0.09;89.95;101143.75;5096465;28;20036;-77
2021/01/18 02:50:20;;;;;;;99.55;83.43;;;;;;;-0.12;89.74;101142.09;5076129;28;20408;-78
2021/01/18 02:53:24;;;;;;;102.43;86.47;;;;;;;-0.16;89.73;101151.03;5076178;28;20044;-79
2021/01/18 02:56:33;;;;;;;96.90;80.45;;;;;;;-0.18;89.65;101141.44;5076062;28;20041;-78
2021/01/18 02:59:37;;;;;;;98.53;84.95;;;;;;;-0.23;89.67;101149.50;5075991;28;20044;-78
2021/01/18 03:02:52;;;;;;;95.68;81.10;;;;;;;-0.21;89.66;101150.31;5082529;28;20044;-78
2021/01/18 03:06:21;;;;;;;95.82;81.78;;;;;;;-0.22;89.38;101158.25;5076015;28;20468;-78
2021/01/18 03:09:34;;;;;;;96.60;82.90;;;;;;;-0.23;89.44;101152.13;5091407;28;20048;-79
2021/01/18 03:13:05;;;;;;;95.50;81.03;;;;;;;-0.19;89.55;101155.50;5095704;28;20480;-78
2021/01/18 03:16:19;;;;;;;91.60;78.25;;;;;;;-0.26;89.34;101143.44;5095947;28;20040;-78
2021/01/18 03:19:36;;;;;;;95.53;80.70;;;;;;;-0.21;89.42;101149.44;5086503;28;20044;-80
2021/01/18 03:22:40;;;;;;;92.10;80.55;;;;;;;-0.18;89.44;101152.84;5075195;28;20037;-78
2021/01/18 03:25:50;;;;;;;97.18;79.28;;;;;;;-0.15;89.17;101141.34;5095682;28;20040;-76
2021/01/18 03:28:55;;;;;;;87.70;75.03;;;;;;;-0.14;89.14;101150.97;5074878;28;20070;-76
2021/01/18 03:31:59;;;;;;;92.78;76.03;;;;;;;-0.23;89.24;101135.44;5073936;28;20399;-76
2021/01/18 03:35:04;;;;;;;89.05;77.00;;;;;;;-0.24;89.04;101142.47;5083850;28;20062;-78
2021/01/18 03:38:09;;;;;;;89.25;75.25;;;;;;;-0.21;89.33;101149.44;5094691;28;20039;-77
2021/01/18 03:41:13;;;;;;;87.20;73.35;;;;;;;-0.17;88.46;101158.97;5094858;28;20040;-76
2021/01/18 03:44:18;;;;;;;84.57;71.95;;;;;;;-0.16;88.45;101152.78;5087402;28;20048;-77
2021/01/18 03:47:22;;;;;;;88.32;74.13;;;;;;;-0.21;88.35;101136.25;5095368;28;20040;-77
2021/01/18 03:50:26;;;;;;;92.60;73.90;;;;;;;-0.27;88.49;101132.00;5074198;28;20040;-79
2021/01/18 03:53:31;;;;;;;84.78;71.70;;;;;;;-0.19;88.29;101150.25;5082158;28;20044;-76
2021/01/18 03:56:41;;;;;;;84.75;72.43;;;;;;;-0.21;88.09;101149.44;5086967;28;20048;-77
2021/01/18 03:59:45;;;;;;;85.00;72.30;;;;;;;-0.17;88.07;101161.59;5075092;28;20045;-76
2021/01/18 04:02:51;;;;;;;83.93;71.50;;;;;;;-0.27;87.91;101160.19;5086489;28;20486;-78
2021/01/18 04:05:55;;;;;;;85.60;69.78;;;;;;;-0.33;88.18;101163.88;5088584;28;20048;-76
2021/01/18 04:08:59;;;;;;;82.93;70.18;;;;;;;-0.26;88.16;101175.09;5073998;28;20049;-77
2021/01/18 04:12:04;;;;;;;80.45;68.35;;;;;;;-0.31;87.89;101179.63;5083322;28;20044;-78
2021/01/18 04:15:11;;;;;;;81.78;69.43;;;;;;;-0.31;87.65;101190.19;5094896;28;20044;-78
2021/01/18 04:18:15;;;;;;;87.13;70.40;;;;;;;-0.33;87.68;101199.91;5093714;28;20387;-78
2021/01/18 04:21:19;;;;;;;80.32;66.10;;;;;;;-0.32;87.51;101204.31;5094621;28;20052;-78
2021/01/18 04:24:24;;;;;;;81.00;67.70;;;;;;;-0.41;86.75;101194.00;5094304;28;20390;-76
2021/01/18 04:27:28;;;;;;;79.53;66.55;;;;;;;-0.47;86.74;101202.09;5094171;28;20048;-77
2021/01/18 04:30:35;;;;;;;78.93;67.57;;;;;;;-0.50;86.67;101199.56;5094881;28;20040;-77
2021/01/18 04:33:39;;;;;;;76.07;65.78;;;;;;;-0.49;86.69;101209.22;5094262;28;20036;-79
2021/01/18 04:36:43;;;;;;;;;;;;;;;-0.62;86.86;101208.69;5094929;28;20048;-78
2021/01/18 04:39:47;;;;;;;77.35;67.15;;;;;;;-0.76;87.32;101216.97;5093732;28;19916;-77
2021/01/18 04:42:52;;;;;;;86.85;73.35;;;;;;;-0.87;87.98;101219.06;5093461;28;20044;-76
2021/01/18 04:45:56;;;;;;;87.43;73.28;;;;;;;-0.87;88.41;101224.31;5094569;28;20048;-79
2021/01/18 04:49:00;;;;;;;89.82;75.57;;;;;;;-0.92;88.77;101226.22;5093600;28;20036;-78
2021/01/18 04:52:11;;;;;;;85.20;71.55;;;;;;;-0.89;88.77;101226.09;5094218;28;20044;-77
2021/01/18 04:55:37;;;;;;;86.20;71.25;;;;;;;-0.78;88.64;101231.97;5094160;28;20040;-77
2021/01/18 04:58:46;;;;;;;87.30;72.45;;;;;;;-0.87;88.69;101234.00;5074070;28;20044;-78
2021/01/18 05:02:02;;;;;;;88.38;71.28;;;;;;;-0.89;88.62;101235.81;5073979;28;20040;-78
2021/01/18 05:05:20;;;;;;;87.43;73.82;;;;;;;-0.90;88.56;101237.56;5074315;28;20044;-78
2021/01/18 05:09:02;;;;;;;89.15;72.85;;;;;;;-0.83;88.75;101239.13;5073442;28;20048;-78
2021/01/18 05:12:10;;;;;;;84.38;68.93;;;;;;;-0.84;88.44;101231.28;5073808;28;20048;-77
2021/01/18 05:15:14;;;;;;;82.22;69.25;;;;;;;-0.81;88.38;101253.13;5073772;28;20472;-77
2021/01/18 05:18:31;;;;;;;84.20;71.72;;;;;;;-0.91;88.56;101254.28;5073753;28;20395;-78
2021/01/18 05:21:43;;;;;;;87.68;70.25;;;;;;;-0.92;88.80;101259.59;5073737;28;20036;-79
2021/01/18 05:24:47;;;;;;;87.13;74.43;;;;;;;-0.94;89.10;101262.25;5073552;28;20040;-78
2021/01/18 05:28:03;;;;;;;90.47;76.07;;;;;;;-0.91;89.62;101266.59;5072352;28;20041;-79
2021/01/18 05:31:32;;;;;;;94.32;77.60;;;;;;;-0.88;89.93;101275.28;5073562;28;20044;-77
2021/01/18 05:34:37;;;;;;;89.82;73.90;;;;;;;-0.82;90.31;101283.03;5072769;28;20036;-77
2021/01/18 05:38:02;;;;;;;94.13;74.07;;;;;;;-0.81;90.40;101286.50;5073554;28;20395;-77
2021/01/18 05:41:08;;;;;;;87.45;71.97;;;;;;;-0.83;90.67;101281.28;5073378;28;20040;-75
2021/01/18 05:44:12;;;;;;;84.78;69.03;;;;;;;-0.82;90.80;101283.03;5073445;28;20052;-79
2021/01/18 05:47:17;;;;;;;84.10;68.40;;;;;;;-0.84;90.56;101286.63;5073414;28;20040;-77
2021/01/18 05:50:25;;;;;;;85.93;69.20;;;;;;;-0.85;90.39;101285.75;5073398;28;20052;-78
2021/01/18 05:53:31;;;;;;;81.22;67.00;;;;;;;-0.80;90.24;101299.66;5072698;28;20041;-75
2021/01/18 05:56:43;;;;;;;82.38;68.85;;;;;;;-0.77;89.79;101299.59;5073300;28;20044;-79
2021/01/18 05:59:48;;;;;;;84.28;68.22;;;;;;;-0.89;89.68;101305.16;5073247;28;20048;-80
2021/01/18 06:02:53;;;;;;;85.60;70.50;;;;;;;-0.91;89.88;101304.34;5072577;28;20483;-78
2021/01/18 06:05:58;;;;;;;216.70;143.93;;;;;;;-0.92;89.76;101294.72;5073222;28;20040;-78
2021/01/18 06:09:04;;;;;;;113.07;84.75;;;;;;;-0.89;90.08;101299.06;5076095;28;20049;-78
2021/01/18 06:12:23;;;;;;;84.53;70.32;;;;;;;-0.89;89.76;101297.25;5076865;28;20395;-78
2021/01/18 06:15:28;;;;;;;81.97;68.55;;;;;;;-0.89;89.68;101302.53;5076377;28;20411;-80
2021/01/18 06:18:33;;;;;;;88.97;71.38;;;;;;;-0.93;89.87;101298.25;5091921;28;20032;-79
2021/01/18 06:21:41;;;;;;;88.70;72.95;;;;;;;-0.79;89.88;101304.03;5096623;28;20036;-77
2021/01/18 06:24:45;;;;;;;80.90;67.40;;;;;;;-0.88;89.40;101301.63;5096797;28;20044;-78
2021/01/18 06:27:53;;;;;;;78.57;63.00;;;;;;;-0.96;89.26;101303.59;5096851;28;20033;-78
2021/01/18 06:30:59;;;;;;;78.75;65.30;;;;;;;-1.03;89.15;101312.56;5095477;28;20056;-78
2021/01/18 06:34:03;;;;;;;81.18;64.35;;;;;;;-1.13;89.13;101315.44;5078692;28;20045;-78
2021/01/18 06:37:20;;;;;;;80.03;64.90;;;;;;;-1.21;89.00;101312.16;5076457;28;20037;-78
2021/01/18 06:40:29;;;;;;;75.35;61.28;;;;;;;-1.29;89.36;101314.97;5075527;28;20052;-78
2021/01/18 06:43:34;;;;;;;77.75;63.78;;;;;;;-1.28;89.58;101316.69;5076293;28;20048;-78
2021/01/18 06:46:38;;;;;;;81.50;63.78;;;;;;;-1.29;89.97;101312.34;5076261;28;20048;-78
2021/01/18 06:49:43;;;;;;;81.15;60.05;;;;;;;-1.31;89.80;101316.78;5080177;28;20399;-78
2021/01/18 06:52:54;;;;;;;79.90;62.00;;;;;;;-1.28;89.72;101314.06;5096385;28;20052;-79
2021/01/18 06:56:07;;;;;;;83.47;62.45;;;;;;;-1.31;89.70;101316.78;5083415;28;20044;-79
2021/01/18 06:59:26;;;;;;;76.80;62.15;;;;;;;-1.33;90.12;101316.81;5096244;28;20044;-76
2021/01/18 07:02:37;;;;;;;86.13;66.22;;;;;;;-1.34;90.54;101319.50;5096263;28;20040;-74
2021/01/18 07:05:47;;;;;;;90.85;67.53;;;;;;;-1.37;90.58;101319.56;5083636;28;20471;-77
2021/01/18 07:08:52;;;;;;;83.13;62.65;;;;;;;-1.36;90.54;101313.41;5089059;28;20398;-78
2021/01/18 07:12:04;;;;;;;91.80;67.63;;;;;;;-1.28;90.41;101315.84;5094487;28;20044;-76
2021/01/18 07:15:10;;;;;;;85.85;64.93;;;;;;;-1.07;90.54;101331.13;5094582;28;20048;-79
2021/01/18 07:18:14;;;;;;;88.13;67.95;;;;;;;-0.95;89.98;101344.84;5089008;28;20044;-76
2021/01/18 07:21:20;;;;;;;78.32;63.08;;;;;;;-0.94;89.18;101337.81;5074710;28;20044;-77
2021/01/18 07:24:29;;;;;;;78.35;62.53;;;;;;;-0.93;88.82;101343.03;5074908;28;20391;-79
2021/01/18 07:27:46;;;;;;;77.70;61.75;;;;;;;-0.89;88.58;101336.78;5094145;28;20040;-80
2021/01/18 07:30:54;;;;;;;80.18;60.78;;;;;;;-0.79;88.13;101338.28;5094169;28;20036;-79
2021/01/18 07:33:59;;;;;;;72.32;58.47;;;;;;;-0.63;87.85;101337.88;5094767;28;20044;-77
2021/01/18 07:37:08;;;;;;;70.53;54.90;;;;;;;-0.41;87.29;101344.31;5094080;28;20043;-80
2021/01/18 07:40:14;;;;;;;65.90;53.15;;;;;;;-0.22;86.45;101346.41;5095064;28;20048;-80
2021/01/18 07:43:32;;;;;;;68.72;54.15;;;;;;;0.03;85.56;101345.69;5094288;28;20047;-80
2021/01/18 07:46:37;;;;;;;61.80;49.72;;;;;;;0.38;84.46;101356.97;5094606;28;20059;-78
2021/01/18 07:49:46;;;;;;;60.55;46.85;;;;;;;0.63;82.72;101349.16;5094826;28;20391;-80
2021/01/18 07:52:57;;;;;;;55.92;46.65;;;;;;;0.83;81.36;101345.88;5094442;28;20067;-80
2021/01/18 07:56:03;;;;;;;56.55;44.13;;;;;;;1.18;79.87;101345.59;5093856;28;20051;-80
2021/01/18 07:59:07;;;;;;;48.88;41.03;;;;;;;1.48;78.32;101349.81;5094228;28;20154;-79
2021/01/18 08:02:23;;;;;;;48.17;39.78;;;;;;;2.22;76.67;101364.81;5093779;28;20048;-78
2021/01/18 08:05:33;;;;;;;;;;;;;;;2.88;73.60;101362.19;5094403;28;20083;-81
2021/01/18 08:08:39;;;;;;;46.53;35.30;;;;;;;3.44;71.03;101366.91;5091917;28;20363;-77
2021/01/18 08:11:43;;;;;;;44.92;34.08;;;;;;;4.29;68.10;101370.19;5074052;28;20051;-81
2021/01/18 08:14:49;;;;;;;39.35;32.08;;;;;;;4.82;65.02;101377.44;5073551;28;20051;-80
2021/01/18 08:18:26;;;;;;;39.63;31.98;;;;;;;5.33;62.69;101377.59;5073899;28;20051;-78
2021/01/18 08:21:36;;;;;;;37.47;31.55;;;;;;;5.39;61.80;101371.94;5072722;28;20052;-80
2021/01/18 08:24:51;;;;;;;36.20;30.83;;;;;;;6.51;59.51;101374.88;5073300;28;20060;-79
2021/01/18 08:27:56;;;;;;;41.40;32.95;;;;;;;7.27;56.42;101377.69;5077032;28;20051;-80
2021/01/18 08:31:00;;;;;;;34.67;30.23;;;;;;;8.12;53.96;101385.00;5092864;28;20051;-79
2021/01/18 08:34:11;;;;;;;37.50;29.70;;;;;;;8.60;51.58;101389.16;5076327;28;20076;-78
2021/01/18 08:37:15;;;;;;;36.85;29.75;;;;;;;7.92;53.65;101398.72;5093702;28;20123;-77
2021/01/18 08:40:20;;;;;;;38.90;30.40;;;;;;;8.83;51.43;101393.06;5086958;28;20059;-79
2021/01/18 08:43:24;;;;;;;36.78;29.67;;;;;;;10.01;48.76;101399.38;5083490;28;20047;-79
2021/01/18 08:46:42;;;;;;;36.53;29.40;;;;;;;11.93;44.50;101403.19;5082999;28;20051;-78
2021/01/18 08:50:21;;;;;;;34.47;27.40;;;;;;;14.88;37.17;101392.81;5082401;28;20407;-81
2021/01/18 08:53:43;;;;;;;32.05;26.15;;;;;;;16.90;33.64;101403.47;5093916;28;20044;-80
2021/01/18 08:56:48;;;;;;;31.70;26.27;;;;;;;18.19;30.95;101402.13;5073623;28;20041;-80
2021/01/18 09:00:01;;;;;;;32.53;26.63;;;;;;;18.89;29.85;101402.09;5073228;28;20048;-80
2021/01/18 09:03:05;;;;;;;28.60;25.67;;;;;;;19.02;28.80;101405.19;5087847;28;20039;-79
2021/01/18 09:06:10;;;;;;;28.73;25.83;;;;;;;19.61;28.43;101406.94;5092289;28;20040;-79
2021/01/18 09:09:14;;;;;;;29.30;26.17;;;;;;;20.12;27.67;101423.88;5090917;28;20036;-80
2021/01/18 09:12:19;;;;;;;33.67;27.88;;;;;;;21.12;26.11;101420.66;5081116;28;20044;-81
2021/01/18 09:15:23;;;;;;;29.65;26.67;;;;;;;20.67;26.36;101428.63;5092861;28;20036;-78
2021/01/18 09:18:27;;;;;;;30.67;27.27;;;;;;;19.93;28.00;101435.09;5093463;28;20040;-78
2021/01/18 09:21:33;;;;;;;30.83;27.48;;;;;;;20.10;27.79;101434.09;5092318;28;20036;-79
2021/01/18 09:24:37;;;;;;;31.98;28.77;;;;;;;19.30;29.00;101442.94;5090891;28;20048;-79
2021/01/18 09:27:44;;;;;;;29.95;26.88;;;;;;;19.39;29.03;101432.94;5093273;28;20402;-77
2021/01/18 09:30:48;;;;;;;29.00;25.98;;;;;;;17.73;31.13;101432.28;5089403;28;20490;-79
2021/01/18 09:33:52;;;;;;;27.85;24.98;;;;;;;16.79;32.62;101436.19;5093129;28;20475;-78
2021/01/18 09:37:06;;;;;;;28.73;25.75;;;;;;;15.82;33.88;101441.88;5093097;28;20040;-79
2021/01/18 09:40:11;;;;;;;27.88;25.10;;;;;;;13.52;38.46;101442.47;5092107;28;20040;-79
2021/01/18 09:43:19;;;;;;;30.42;27.30;;;;;;;11.99;42.56;101448.50;5095057;28;20040;-78
2021/01/18 09:46:24;;;;;;;33.33;29.83;;;;;;;10.78;46.31;101461.03;5093215;28;20044;-78
2021/01/18 09:49:28;;;;;;;34.67;31.00;;;;;;;9.75;49.09;101449.38;5075893;28;20048;-79
2021/01/18 09:52:33;;;;;;;35.90;32.40;;;;;;;9.39;51.15;101459.00;5081002;28;20048;-77
2021/01/18 09:55:51;;;;;;;37.78;33.50;;;;;;;9.13;52.58;101466.06;5095324;28;20063;-79
2021/01/18 09:58:58;;;;;;;42.40;36.42;;;;;;;8.91;53.37;101452.31;5095632;28;20498;-79
2021/01/18 10:02:03;;;;;;;41.85;37.40;;;;;;;8.66;54.97;101449.47;5097048;28;20059;-78
2021/01/18 10:05:08;;;;;;;46.90;41.80;;;;;;;8.18;56.29;101440.78;5093211;28;20051;-79
2021/01/18 10:08:17;;;;;;;47.80;42.80;;;;;;;8.14;56.63;101439.28;5090993;28;20090;-80
2021/01/18 10:11:45;;;;;;;50.78;43.55;;;;;;;8.15;56.94;101446.31;5076558;28;20064;-78
2021/01/18 10:14:51;;;;;;;48.75;43.47;;;;;;;8.16;56.96;101448.06;5095807;28;20067;-78
2021/01/18 10:17:56;;;;;;;51.88;44.05;;;;;;;8.24;56.37;101451.13;5076292;28;20044;-79
2021/01/18 10:21:02;;;;;;;52.10;46.50;;;;;;;7.45;58.82;101454.09;5086715;28;20060;-78
2021/01/18 10:24:06;;;;;;;49.85;44.55;;;;;;;7.51;59.03;101449.25;5075681;28;20075;-79
2021/01/18 10:27:15;;;;;;;49.80;44.58;;;;;;;7.74;58.57;101439.91;5086007;28;20427;-77
2021/01/18 10:30:27;;;;;;;50.05;44.75;;;;;;;7.80;58.80;101443.06;5083972;28;20055;-78
2021/01/18 10:33:32;;;;;;;49.17;43.77;;;;;;;7.91;58.86;101445.13;5087572;28;20502;-78
2021/01/18 10:36:39;;;;;;;50.42;45.00;;;;;;;7.87;58.95;101439.06;5076089;28;20051;-78
2021/01/18 10:39:49;;;;;;;51.33;44.65;;;;;;;7.79;59.22;101430.69;5076353;28;20056;-78
2021/01/18 10:42:54;;;;;;;44.65;39.78;;;;;;;7.68;59.21;101430.44;5075636;28;20055;-79
2021/01/18 10:46:00;;;;;;;51.00;43.15;;;;;;;7.37;60.45;101434.97;5075824;28;20519;-79
2021/01/18 10:49:04;;;;;;;48.00;42.63;;;;;;;7.09;61.01;101430.34;5084748;28;20490;-79
2021/01/18 10:52:11;;;;;;;49.28;43.97;;;;;;;7.11;61.81;101434.63;5083925;28;20059;-79
2021/01/18 10:55:17;;;;;;;45.35;40.45;;;;;;;7.00;61.42;101430.84;5095785;28;20071;-79
2021/01/18 10:58:29;;;;;;;50.78;44.42;;;;;;;6.52;63.11;101426.41;5095606;28;20043;-78
2021/01/18 11:01:33;;;;;;;51.33;45.55;;;;;;;6.43;63.53;101424.22;5092286;28;20051;-78
2021/01/18 11:04:46;;;;;;;51.92;46.28;;;;;;;6.56;64.19;101425.31;5085043;28;20051;-79
2021/01/18 11:07:50;;;;;;;53.25;47.40;;;;;;;6.75;63.73;101412.69;5078351;28;20399;-79
2021/01/18 11:10:55;;;;;;;61.38;51.53;;;;;;;6.75;63.47;101404.69;5093309;28;20055;-78
2021/01/18 11:14:06;;;;;;;69.95;61.67;;;;;;;6.41;64.20;101408.31;5095915;28;20071;-78
2021/01/18 11:17:10;;;;;;;71.57;61.45;;;;;;;6.50;64.36;101412.28;5095194;28;20513;-77
2021/01/18 11:20:23;;;;;;;68.68;59.60;;;;;;;6.61;64.13;101399.25;5095058;28;20055;-81
2021/01/18 11:23:27;;;;;;;79.88;63.72;;;;;;;6.52;64.84;101405.94;5093987;28;20047;-78
2021/01/18 11:26:31;;;;;;;73.95;65.70;;;;;;;6.52;65.13;101405.94;5095164;28;20425;-78
2021/01/18 11:29:36;;;;;;;73.60;65.68;;;;;;;6.51;65.00;101406.03;5095419;28;20046;-79
2021/01/18 11:32:40;;;;;;;;;;;;;;;6.36;65.36;101409.50;5095045;28;20051;-78
2021/01/18 11:35:47;;;;;;;76.78;68.28;;;;;;;6.22;66.04;101404.06;5094967;28;19920;-77
2021/01/18 11:38:52;;;;;;;77.63;69.32;;;;;;;6.29;66.23;101394.78;5094345;28;20403;-77
2021/01/18 11:41:59;;;;;;;78.18;69.22;;;;;;;6.39;67.68;101390.69;5094235;28;20043;-78
2021/01/18 11:45:07;;;;;;;77.95;68.78;;;;;;;6.61;66.70;101391.25;5094608;28;20039;-79
2021/01/18 11:48:11;;;;;;;77.30;69.05;;;;;;;6.61;66.18;101385.91;5094162;28;20055;-78
2021/01/18 11:51:16;;;;;;;78.10;69.72;;;;;;;6.68;65.67;101373.94;5094543;28;20043;-78
2021/01/18 11:54:24;;;;;;;76.80;68.68;;;;;;;6.80;65.55;101370.59;5094490;28;20059;-80
2021/01/18 11:57:28;;;;;;;79.05;70.55;;;;;;;6.60;65.22;101365.50;5082061;28;20056;-79
2021/01/18 12:00:32;;;;;;;79.55;70.85;;;;;;;6.54;65.78;101373.84;5093582;28;20411;-80
2021/01/18 12:03:36;;;;;;;82.57;71.03;;;;;;;6.51;66.03;101366.88;5074270;28;20047;-80
2021/01/18 12:06:41;;;;;;;80.28;71.72;;;;;;;6.48;65.98;101360.84;5072956;28;20055;-79
2021/01/18 12:09:45;;;;;;;78.05;69.82;;;;;;;6.50;65.86;101358.94;5074782;28;20399;-80
2021/01/18 12:12:50;;;;;;;78.72;70.20;;;;;;;6.49;66.06;101350.09;5087326;28;20498;-79
2021/01/18 12:15:54;;;;;;;79.57;70.93;;;;;;;6.32;66.67;101352.81;5077622;28;20075;-79
2021/01/18 12:18:58;;;;;;;80.10;69.82;;;;;;;6.35;67.47;101352.66;5093230;28;20051;-81
2021/01/18 12:22:03;;;;;;;81.05;71.47;;;;;;;6.36;67.05;101353.53;5091925;28;20051;-80
2021/01/18 12:25:07;;;;;;;;;;;;;;;6.25;67.25;101356.75;5093743;28;20394;-80
2021/01/18 12:28:11;;;;;;;79.95;70.15;;;;;;;6.33;67.51;101359.88;5093152;28;19916;-80
2021/01/18 12:31:16;;;;;;;88.65;74.18;;;;;;;6.40;67.35;101363.06;5092246;28;20051;-78
2021/01/18 12:34:20;;;;;;;79.47;70.82;;;;;;;6.25;66.50;101358.56;5092734;28;20071;-79
2021/01/18 12:37:25;;;;;;;84.88;71.22;;;;;;;6.20;66.61;101353.47;5092999;28;20047;-79
2021/01/18 12:40:29;;;;;;;79.75;71.03;;;;;;;6.12;66.42;101349.53;5094130;28;20059;-79
2021/01/18 12:43:34;;;;;;;82.28;71.47;;;;;;;6.02;66.51;101349.16;5092987;28;20051;-80
2021/01/18 12:46:38;;;;;;;80.80;71.63;;;;;;;5.87;67.17;101344.63;5093976;28;20051;-80
2021/01/18 12:49:42;;;;;;;78.80;69.60;;;;;;;5.99;67.01;101346.66;5092859;28;20051;-80
2021/01/18 12:52:48;;;;;;;81.18;69.47;;;;;;;6.10;66.49;101346.06;5092125;28;20090;-79
2021/01/18 12:55:52;;;;;;;73.65;64.97;;;;;;;6.07;66.12;101347.09;5094275;28;20051;-78
2021/01/18 12:58:57;;;;;;;71.75;62.70;;;;;;;6.11;65.80;101342.44;5094284;28;20374;-79
2021/01/18 13:02:06;;;;;;;77.60;68.18;;;;;;;6.03;66.05;101344.66;5094206;28;20075;-80
2021/01/18 13:05:11;;;;;;;78.50;64.57;;;;;;;6.10;66.23;101335.41;5094016;28;20386;-79
2021/01/18 13:08:15;;;;;;;75.85;64.78;;;;;;;6.04;66.08;101341.06;5094041;28;20367;-78
2021/01/18 13:11:21;;;;;;;74.95;64.93;;;;;;;6.06;66.12;101344.50;5093276;28;20501;-80
2021/01/18 13:14:24;;;;;;;74.05;64.38;;;;;;;6.04;65.79;101341.06;5094022;28;20051;-79
2021/01/18 13:17:29;;;;;;;78.10;66.03;;;;;;;6.02;65.90;101346.50;5094460;28;20051;-79
2021/01/18 13:20:34;;;;;;;76.50;64.72;;;;;;;6.04;66.25;101343.72;5091681;28;20154;-82
2021/01/18 13:23:39;;;;;;;75.70;65.88;;;;;;;6.04;66.38;101344.59;5083204;28;20398;-78
2021/01/18 13:26:43;;;;;;;81.47;70.50;;;;;;;5.92;67.07;101334.59;5091863;28;20070;-77
2021/01/18 13:29:47;;;;;;;84.93;69.65;;;;;;;5.88;67.19;101336.53;5092607;28;20051;-77
2021/01/18 13:32:51;;;;;;;;;;;;;;;5.80;67.74;101337.88;5086015;28;20044;-77
2021/01/18 13:35:55;;;;;;;85.60;70.47;;;;;;;5.73;67.70;101325.78;5087920;28;19917;-76
2021/01/18 13:38:59;;;;;;;82.28;68.20;;;;;;;5.82;67.63;101331.53;5076304;28;20067;-77
2021/01/18 13:42:05;;;;;;;86.15;69.90;;;;;;;5.71;67.80;101317.03;5088711;28;20390;-77
2021/01/18 13:45:10;;;;;;;80.18;67.68;;;;;;;5.78;67.21;101319.28;5095889;28;20063;-78
2021/01/18 13:48:15;;;;;;;84.45;69.72;;;;;;;5.79;66.95;101329.00;5096458;28;20398;-77
2021/01/18 13:51:22;;;;;;;78.30;67.45;;;;;;;5.84;66.89;101319.00;5076316;28;20071;-79
2021/01/18 13:54:27;;;;;;;81.25;66.93;;;;;;;5.87;67.02;101324.19;5077895;28;20395;-77
2021/01/18 13:57:32;;;;;;;84.32;68.45;;;;;;;5.79;66.87;101326.34;5076481;28;20064;-78
2021/01/18 14:00:39;;;;;;;82.93;68.82;;;;;;;5.86;67.02;101327.78;5088243;28;20055;-78
2021/01/18 14:03:46;;;;;;;83.75;67.47;;;;;;;5.79;66.86;101321.03;5077951;28;20047;-78
2021/01/18 14:06:50;;;;;;;82.88;69.00;;;;;;;5.75;66.94;101318.59;5083230;28;20386;-76
2021/01/18 14:09:53;;;;;;;;;;;;;;;5.73;66.81;101324.00;5095375;28;20051;-78
2021/01/18 14:12:59;;;;;;;83.10;68.80;;;;;;;5.66;67.72;101314.59;5095575;28;19916;-76
2021/01/18 14:16:04;;;;;;;86.07;69.20;;;;;;;5.70;67.99;101316.16;5085563;28;20044;-75
2021/01/18 14:19:09;;;;;;;90.32;72.68;;;;;;;5.61;68.04;101315.78;5087319;28;20051;-77